.
WxDataArchive / Data Records for 2014-08-06
2014-08-05 August 2014 2014-08-07

Data Records for Wednesday, 06 August 2014

Time	Temp	Chill	HIndex	Humid	Dewpt	 Wind 	HiWind	WindDir	Rain 	Barom
-----	----	-----	------	-----	-----	------	------	-------	-----	-----
00:00	70.6	70.6	70.6	85	65.9	0	0	---	0.00	29.979 
00:05	70.4	70.4	70.4	85	65.7	0	0	---	0.00	29.979 
00:10	70.3	70.3	70.3	85	65.6	0	0	---	0.00	29.979 
00:15	70.3	70.3	70.3	87	66.2	0	0	---	0.00	29.987 
00:20	70.3	70.3	70.3	88	66.6	0	0	---	0.00	29.987 
00:25	70.3	70.3	70.3	88	66.6	0	0	---	0.00	29.987 
00:30	70.1	70.1	70.1	88	66.4	0	0	---	0.00	29.985 
00:35	69.9	69.9	69.9	89	66.5	0	0	---	0.00	29.985 
00:40	69.8	69.8	69.8	89	66.4	0	1	135	0.00	29.985 
00:45	69.4	69.4	69.4	89	66.0	0	0	---	0.00	29.986 
00:50	69.1	69.1	69.1	89	65.7	0	0	---	0.00	29.986 
00:55	68.8	68.8	68.8	89	65.4	0	0	---	0.00	29.986 
01:00	68.6	68.6	68.6	89	65.2	0	0	---	0.00	29.983 
01:05	68.4	68.4	68.4	89	65.0	0	0	---	0.00	29.983 
01:10	68.3	68.3	68.3	89	64.9	0	0	---	0.00	29.983 
01:15	68.1	68.1	68.1	89	64.7	0	0	---	0.00	29.981 
01:20	67.9	67.9	67.9	89	64.5	0	0	---	0.00	29.981 
01:25	67.8	67.8	67.8	90	64.8	0	0	---	0.00	29.981 
01:30	67.4	67.4	67.4	90	64.4	0	0	---	0.00	29.982 
01:35	67.3	67.3	67.3	90	64.3	0	0	---	0.00	29.982 
01:40	67.1	67.1	67.1	90	64.1	0	0	---	0.00	29.982 
01:45	66.9	66.9	66.9	90	63.9	0	0	---	0.00	29.982 
01:50	66.8	66.8	66.8	90	63.8	0	0	---	0.00	29.982 
01:55	66.6	66.6	66.6	91	63.9	0	0	---	0.00	29.982 
02:00	66.4	66.4	66.4	91	63.7	0	0	---	0.00	29.975 
02:05	66.4	66.4	66.4	91	63.7	0	0	---	0.00	29.975 
02:10	66.3	66.3	66.3	91	63.6	0	0	---	0.00	29.975 
02:15	66.1	66.1	66.1	92	63.7	0	0	---	0.00	29.968 
02:20	66.1	66.1	66.1	92	63.7	0	0	---	0.00	29.968 
02:25	66.0	66.0	66.0	92	63.6	0	0	---	0.00	29.968 
02:30	65.8	65.8	65.8	92	63.4	0	0	---	0.00	29.968 
02:35	65.8	65.8	65.8	92	63.4	0	0	---	0.00	29.968 
02:40	65.6	65.6	65.6	92	63.2	0	0	---	0.00	29.968 
02:45	65.5	65.5	65.5	92	63.1	0	0	---	0.00	29.966 
02:50	65.3	65.3	65.3	92	62.9	0	0	---	0.00	29.966 
02:55	65.2	65.2	65.2	92	62.8	0	0	---	0.00	29.966 
03:00	65.0	65.0	65.0	93	62.9	0	0	---	0.00	29.965 
03:05	64.8	64.8	64.8	92	62.4	0	0	---	0.00	29.965 
03:10	64.7	64.7	64.7	93	62.6	0	0	---	0.00	29.965 
03:15	64.7	64.7	64.7	93	62.6	0	0	---	0.00	29.966 
03:20	64.5	64.5	64.5	93	62.4	0	0	---	0.00	29.966 
03:25	64.5	64.5	64.5	93	62.4	0	0	---	0.00	29.966 
03:30	64.3	64.3	64.3	93	62.2	0	0	---	0.00	29.966 
03:35	64.2	64.2	64.2	93	62.1	0	0	---	0.00	29.966 
03:40	64.0	64.0	64.0	93	61.9	0	0	---	0.00	29.966 
03:45	64.0	64.0	64.0	93	61.9	0	0	---	0.00	29.959 
03:50	63.9	63.9	63.9	93	61.8	0	0	---	0.00	29.959 
03:55	63.7	63.7	63.7	93	61.6	0	0	---	0.00	29.959 
04:00	63.9	63.9	63.9	93	61.8	0	0	---	0.00	29.958 
04:05	63.9	63.9	63.9	94	62.1	0	0	---	0.00	29.958 
04:10	63.9	63.9	63.9	94	62.1	0	0	---	0.00	29.958 
04:15	64.0	64.0	64.0	94	62.2	0	0	---	0.00	29.957 
04:20	64.0	64.0	64.0	94	62.2	0	0	---	0.00	29.957 
04:25	64.0	64.0	64.0	94	62.2	0	0	---	0.00	29.957 
04:30	64.0	64.0	64.0	94	62.2	0	0	---	0.00	29.956 
04:35	63.9	63.9	63.9	94	62.1	0	0	---	0.00	29.956 
04:40	63.9	63.9	63.9	94	62.1	0	0	---	0.00	29.956 
04:45	63.7	63.7	63.7	94	61.9	0	0	---	0.00	29.955 
04:50	63.5	63.5	63.5	94	61.7	0	0	---	0.00	29.955 
04:55	63.5	63.5	63.5	94	61.7	0	0	---	0.00	29.955 
05:00	63.7	63.7	63.7	94	61.9	0	0	---	0.00	29.957 
05:05	63.5	63.5	63.5	94	61.7	0	0	---	0.00	29.957 
05:10	63.4	63.4	63.4	94	61.6	0	0	---	0.00	29.957 
05:15	63.2	63.2	63.2	94	61.4	0	0	---	0.00	29.957 
05:20	63.2	63.2	63.2	94	61.4	0	0	---	0.00	29.957 
05:25	63.2	63.2	63.2	95	61.7	0	0	---	0.00	29.957 
05:30	63.2	63.2	63.2	95	61.7	0	0	---	0.00	29.959 
05:35	63.4	63.4	63.4	95	61.9	0	0	---	0.00	29.959 
05:40	63.2	63.2	63.2	95	61.7	0	0	---	0.00	29.959 
05:45	63.2	63.2	63.2	95	61.7	0	0	---	0.00	29.963 
05:50	63.2	63.2	63.2	95	61.7	0	0	---	0.00	29.963 
05:55	63.2	63.2	63.2	95	61.7	0	0	---	0.00	29.963 
06:00	63.1	63.1	63.1	95	61.6	0	0	---	0.00	29.958 
06:05	63.1	63.1	63.1	95	61.6	0	0	---	0.00	29.958 
06:10	63.1	63.1	63.1	95	61.6	0	0	---	0.00	29.958 
06:15	63.1	63.1	63.1	95	61.6	0	0	---	0.00	29.960 
06:20	63.2	63.2	63.2	95	61.7	0	0	---	0.00	29.960 
06:25	63.4	63.4	63.4	95	61.9	0	0	---	0.00	29.960 
06:30	63.4	63.4	63.4	95	61.9	0	1	135	0.00	29.959 
06:35	63.4	63.4	63.4	95	61.9	0	1	135	0.00	29.959 
06:40	63.2	63.2	63.2	95	61.7	0	0	---	0.00	29.959 
06:45	63.1	63.1	63.1	95	61.6	0	1	135	0.00	29.966 
06:50	63.1	63.1	63.1	95	61.6	0	1	135	0.00	29.966 
06:55	62.9	62.9	62.9	95	61.4	0	1	135	0.00	29.966 
07:00	62.9	62.9	62.9	95	61.4	0	1	135	0.00	29.970 
07:05	62.9	62.9	62.9	95	61.4	0	0	---	0.00	29.970 
07:10	62.9	62.9	62.9	95	61.4	0	0	---	0.00	29.970 
07:15	62.9	62.9	62.9	96	61.7	0	1	158	0.00	29.981 
07:20	63.1	63.1	63.1	96	61.9	0	0	---	0.00	29.981 
07:25	63.1	63.1	63.1	96	61.9	0	1	158	0.00	29.981 
07:30	63.1	63.1	63.1	96	61.9	0	0	---	0.00	29.986 
07:35	63.1	63.1	63.1	96	61.9	0	0	---	0.00	29.986 
07:40	63.2	63.2	63.2	96	62.0	0	1	158	0.00	29.986 
07:45	63.2	63.2	63.2	96	62.0	0	1	158	0.00	29.988 
07:50	63.2	63.2	63.2	96	62.0	0	1	158	0.00	29.988 
07:55	63.2	63.2	63.2	96	62.0	0	1	158	0.00	29.988 
08:00	63.2	63.2	63.2	96	62.0	0	1	158	0.00	29.990 
08:05	63.4	63.4	63.4	96	62.2	0	2	158	0.00	29.990 
08:10	63.4	63.4	63.4	96	62.2	1	4	90	0.00	29.990 
08:15	63.5	63.5	63.5	96	62.3	0	2	90	0.00	29.992 
08:20	63.5	63.5	63.5	96	62.3	0	2	90	0.00	29.992 
08:25	63.5	63.5	63.5	96	62.3	1	3	90	0.00	29.992 
08:30	63.7	63.7	63.7	96	62.5	0	3	90	0.00	30.000 
08:35	63.9	63.9	63.9	96	62.7	0	1	90	0.00	30.000 
08:40	63.9	63.9	63.9	96	62.7	0	0	---	0.00	30.000 
08:45	64.0	64.0	64.0	96	62.8	0	1	90	0.00	30.004 
08:50	64.2	64.2	64.2	96	63.0	0	1	90	0.00	30.004 
08:55	64.3	64.3	64.3	96	63.1	0	2	90	0.00	30.004 
09:00	64.5	64.5	64.5	96	63.3	0	1	90	0.00	30.004 
09:05	64.5	64.5	64.5	96	63.3	0	1	90	0.00	30.004 
09:10	64.7	64.7	64.7	96	63.5	0	2	90	0.00	30.004 
09:15	64.7	64.7	64.7	96	63.5	0	1	90	0.00	30.006 
09:20	64.8	64.8	64.8	96	63.6	0	2	90	0.00	30.006 
09:25	65.0	65.0	65.0	96	63.8	0	1	90	0.00	30.006 
09:30	65.0	65.0	65.0	96	63.8	0	1	90	0.00	30.006 
09:35	65.2	65.2	65.2	96	64.0	0	1	90	0.00	30.006 
09:40	65.3	65.3	65.3	96	64.1	0	1	90	0.00	30.006 
09:45	65.3	65.3	65.3	96	64.1	0	1	90	0.00	30.014 
09:50	65.5	65.5	65.5	96	64.3	0	0	---	0.00	30.014 
09:55	65.6	65.6	65.6	96	64.4	0	2	90	0.00	30.014 
10:00	65.6	65.6	65.6	96	64.4	0	1	90	0.00	30.017 
10:05	65.6	65.6	65.6	96	64.4	0	2	90	0.00	30.017 
10:10	65.8	65.8	65.8	96	64.6	0	3	68	0.00	30.017 
10:15	66.0	66.0	66.0	96	64.8	0	1	68	0.00	30.018 
10:20	66.0	66.0	66.0	96	64.8	0	1	68	0.00	30.018 
10:25	66.1	66.1	66.1	96	64.9	0	2	68	0.00	30.018 
10:30	66.1	66.1	66.1	96	64.9	0	2	68	0.00	30.017 
10:35	66.4	66.4	66.4	96	65.2	0	3	68	0.00	30.017 
10:40	66.4	66.4	66.4	96	65.2	0	3	68	0.00	30.017 
10:45	66.6	66.6	66.6	96	65.4	0	1	68	0.00	30.018 
10:50	66.6	66.6	66.6	96	65.4	0	1	68	0.00	30.018 
10:55	66.8	66.8	66.8	96	65.6	1	2	68	0.00	30.018 
11:00	66.8	66.8	66.8	96	65.6	0	3	68	0.00	30.019 
11:05	67.1	67.1	67.1	96	65.9	0	2	68	0.00	30.019 
11:10	67.1	67.1	67.1	96	65.9	0	4	68	0.00	30.019 
11:15	67.3	67.3	67.3	96	66.1	0	1	68	0.00	30.020 
11:20	67.4	67.4	67.4	95	65.9	0	2	68	0.00	30.020 
11:25	67.6	67.6	67.6	95	66.1	0	2	68	0.00	30.020 
11:30	67.8	67.8	67.8	95	66.3	0	2	68	0.00	30.021 
11:35	68.1	68.1	68.1	94	66.3	0	2	68	0.00	30.021 
11:40	68.3	68.3	68.3	93	66.2	1	4	90	0.00	30.021 
11:45	68.6	68.6	68.6	92	66.2	0	1	90	0.00	30.020 
11:50	68.8	68.8	68.8	91	66.1	0	2	90	0.00	30.020 
11:55	68.8	68.8	68.8	90	65.7	1	2	90	0.00	30.020 
12:00	69.1	69.1	69.1	90	66.0	1	2	90	0.00	30.019 
12:05	69.3	69.3	69.3	88	65.6	1	3	90	0.00	30.019 
12:10	69.6	69.6	69.6	88	65.9	0	1	90	0.00	30.019 
12:15	70.1	70.1	70.1	87	66.0	0	2	90	0.00	30.018 
12:20	70.6	70.6	70.6	84	65.5	1	3	90	0.00	30.018 
12:25	70.9	70.9	70.9	84	65.8	0	1	90	0.00	30.018 
12:30	71.3	71.3	71.3	83	65.9	0	1	90	0.00	30.016 
12:35	71.6	71.6	71.6	82	65.8	0	3	90	0.00	30.016 
12:40	72.3	72.3	72.3	81	66.1	0	2	90	0.00	30.016 
12:45	72.5	72.5	72.5	80	66.0	0	0	---	0.00	30.013 
12:50	73.0	73.0	73.0	79	66.1	0	1	90	0.00	30.013 
12:55	73.3	73.3	73.3	77	65.6	1	3	90	0.00	30.013 
13:00	73.7	73.7	73.7	76	65.6	0	3	90	0.00	30.012 
13:05	74.2	74.2	74.2	75	65.8	1	3	90	0.00	30.012 
13:10	74.9	74.9	74.9	76	66.8	0	1	90	0.00	30.012 
13:15	75.6	75.6	77.0	74	66.7	1	3	90	0.00	30.010 
13:20	75.8	75.8	77.3	72	66.1	0	1	90	0.00	30.010 
13:25	76.0	76.0	77.6	71	65.9	0	2	90	0.00	30.010 
13:30	75.8	75.8	77.4	71	65.7	1	3	90	0.00	30.007 
13:35	76.0	76.0	77.6	71	65.9	1	2	90	0.00	30.007 
13:40	76.0	76.0	77.7	70	65.5	1	3	90	0.00	30.007 
13:45	75.4	75.4	77.1	70	64.9	1	5	90	0.00	30.001 
13:50	74.7	74.7	74.7	72	65.1	0	2	292	0.00	30.001 
13:55	74.6	74.6	74.6	72	65.0	0	1	292	0.00	30.001 
14:00	74.9	74.9	74.9	73	65.6	0	1	292	0.00	30.001 
14:05	75.1	75.1	76.5	73	65.8	0	1	292	0.00	30.001 
14:10	75.3	75.3	76.8	72	65.6	0	1	292	0.00	30.001 
14:15	75.8	75.8	77.4	71	65.7	0	3	292	0.00	29.992 
14:20	76.3	76.3	78.0	70	65.8	0	1	292	0.00	29.992 
14:25	76.8	76.8	78.6	68	65.4	1	2	292	0.00	29.992 
14:30	76.8	76.8	78.6	67	65.0	1	3	292	0.00	29.988 
14:35	77.0	77.0	78.8	68	65.6	0	2	292	0.00	29.988 
14:40	77.7	77.7	79.5	65	65.0	1	3	180	0.00	29.988 
14:45	77.6	77.6	79.4	64	64.4	1	3	248	0.00	29.986 
14:50	77.4	77.4	79.2	64	64.2	1	3	292	0.00	29.986 
14:55	77.9	77.9	79.8	66	65.6	0	2	292	0.00	29.986 
15:00	78.3	78.3	80.0	61	63.7	1	4	68	0.00	29.985 
15:05	78.3	78.3	80.0	61	63.7	1	4	68	0.00	29.985 
15:10	78.3	78.3	80.1	62	64.2	0	1	68	0.00	29.985 
15:15	78.1	78.1	79.9	63	64.5	0	1	68	0.00	29.984 
15:20	77.6	77.6	79.4	63	64.0	0	1	68	0.00	29.984 
15:25	77.4	77.4	79.2	63	63.8	0	3	68	0.00	29.984 
15:30	77.4	77.4	79.2	63	63.8	0	2	68	0.00	29.984 
15:35	77.4	77.4	79.2	63	63.8	0	1	68	0.00	29.984 
15:40	77.4	77.4	79.2	63	63.8	0	2	68	0.00	29.984 
15:45	77.4	77.4	79.2	63	63.8	0	3	68	0.00	29.983 
15:50	77.2	77.2	79.0	63	63.6	0	1	68	0.00	29.983 
15:55	77.2	77.2	79.0	64	64.1	0	1	68	0.00	29.983 
16:00	77.0	77.0	78.8	64	63.9	0	1	68	0.00	29.982 
16:05	76.7	76.7	78.5	64	63.6	0	1	68	0.00	29.982 
16:10	76.7	76.7	78.5	65	64.0	1	3	68	0.00	29.982 
16:15	77.0	77.0	78.8	64	63.9	1	5	68	0.00	29.985 
16:20	76.8	76.8	78.6	65	64.1	0	3	158	0.00	29.985 
16:25	76.7	76.7	78.5	67	64.9	1	3	135	0.00	29.985 
16:30	76.5	76.5	78.3	67	64.7	1	3	135	0.00	29.984 
16:35	76.3	76.3	78.1	67	64.5	0	2	135	0.00	29.984 
16:40	76.0	76.0	77.8	67	64.2	0	2	135	0.00	29.984 
16:45	75.8	75.8	77.6	67	64.0	0	3	135	0.00	29.985 
16:50	75.6	75.6	77.4	68	64.3	0	2	135	0.00	29.985 
16:55	75.6	75.6	77.3	69	64.7	0	0	---	0.00	29.985 
17:00	75.8	75.8	77.5	69	64.9	0	2	135	0.00	29.982 
17:05	76.0	76.0	77.8	67	64.2	0	0	---	0.00	29.982 
17:10	76.0	76.0	77.7	69	65.1	0	0	---	0.00	29.982 
17:15	76.1	76.1	77.8	68	64.8	0	1	135	0.00	29.977 
17:20	76.3	76.3	78.0	69	65.4	0	0	---	0.00	29.977 
17:25	76.7	76.7	78.5	68	65.3	0	2	135	0.00	29.977 
17:30	77.2	77.2	79.0	63	63.6	0	2	135	0.00	29.977 
17:35	77.7	77.7	79.5	63	64.1	0	1	135	0.00	29.977 
17:40	78.1	78.1	79.8	61	63.5	1	4	135	0.00	29.977 
17:45	78.1	78.1	79.7	58	62.1	1	3	135	0.00	29.976 
17:50	77.7	77.7	79.4	60	62.7	1	3	270	0.00	29.976 
17:55	77.6	77.6	79.3	61	63.1	0	2	270	0.00	29.976 
18:00	77.4	77.4	79.1	61	62.9	1	5	90	0.00	29.980 
18:05	77.0	77.0	78.8	60	62.0	0	1	90	0.00	29.980 
18:10	76.7	76.7	78.5	60	61.7	0	1	90	0.00	29.980 
18:15	76.5	76.5	78.4	60	61.6	0	1	90	0.00	29.983 
18:20	76.3	76.3	78.2	62	62.3	0	2	90	0.00	29.983 
18:25	76.3	76.3	78.2	62	62.3	0	2	90	0.00	29.983 
18:30	76.3	76.3	78.2	63	62.8	0	0	---	0.00	29.985 
18:35	76.3	76.3	78.2	63	62.8	0	0	---	0.00	29.985 
18:40	76.3	76.3	78.2	63	62.8	0	2	90	0.00	29.985 
18:45	76.3	76.3	78.2	63	62.8	0	1	90	0.00	29.984 
18:50	76.5	76.5	78.3	63	62.9	0	1	90	0.00	29.984 
18:55	76.3	76.3	78.2	62	62.3	0	2	90	0.00	29.984 
19:00	76.3	76.3	78.2	63	62.8	0	1	90	0.00	29.985 
19:05	76.3	76.3	78.2	62	62.3	0	1	90	0.00	29.985 
19:10	76.1	76.1	78.0	62	62.1	0	1	90	0.00	29.985 
19:15	76.0	76.0	78.0	60	61.1	0	2	90	0.00	29.987 
19:20	76.0	76.0	78.0	61	61.6	0	0	---	0.00	29.987 
19:25	76.0	76.0	78.0	62	62.0	0	0	---	0.00	29.987 
19:30	75.8	75.8	77.8	62	61.8	0	0	---	0.00	29.986 
19:35	75.8	75.8	77.8	62	61.8	0	0	---	0.00	29.986 
19:40	75.8	75.8	77.9	59	60.4	0	2	90	0.00	29.986 
19:45	75.8	75.8	77.9	59	60.4	0	2	90	0.00	29.988 
19:50	75.6	75.6	77.8	58	59.8	0	1	90	0.00	29.988 
19:55	75.6	75.6	77.8	59	60.2	0	1	90	0.00	29.988 
20:00	75.4	75.4	77.6	59	60.1	0	0	---	0.00	29.988 
20:05	75.3	75.3	77.5	60	60.4	0	0	---	0.00	29.988 
20:10	75.1	75.1	77.4	60	60.2	0	0	---	0.00	29.988 
20:15	74.7	74.7	74.7	60	59.9	0	0	---	0.00	29.988 
20:20	74.4	74.4	74.4	61	60.1	0	0	---	0.00	29.988 
20:25	74.2	74.2	74.2	62	60.3	0	0	---	0.00	29.988 
20:30	73.9	73.9	73.9	62	60.0	0	0	---	0.00	29.991 
20:35	73.7	73.7	73.7	62	59.9	0	0	---	0.00	29.991 
20:40	73.3	73.3	73.3	62	59.5	0	0	---	0.00	29.991 
20:45	73.0	73.0	73.0	63	59.6	0	0	---	0.00	29.994 
20:50	72.7	72.7	72.7	63	59.4	0	0	---	0.00	29.994 
20:55	72.3	72.3	72.3	63	59.0	0	0	---	0.00	29.994 
21:00	72.0	72.0	72.0	63	58.7	0	0	---	0.00	29.997 
21:05	71.8	71.8	71.8	64	59.0	0	0	---	0.00	29.997 
21:10	71.5	71.5	71.5	64	58.7	0	0	---	0.00	29.997 
21:15	71.1	71.1	71.1	65	58.7	0	0	---	0.00	29.998 
21:20	70.9	70.9	70.9	65	58.5	0	0	---	0.00	29.998 
21:25	70.6	70.6	70.6	65	58.2	0	0	---	0.00	29.998 
21:30	70.4	70.4	70.4	66	58.5	0	0	---	0.00	29.997 
21:35	70.1	70.1	70.1	66	58.2	0	0	---	0.00	29.997 
21:40	69.8	69.8	69.8	67	58.3	0	0	---	0.00	29.997 
21:45	69.6	69.6	69.6	68	58.6	0	0	---	0.00	30.005 
21:50	69.3	69.3	69.3	68	58.3	0	0	---	0.00	30.005 
21:55	69.1	69.1	69.1	68	58.1	0	0	---	0.00	30.005 
22:00	68.9	68.9	68.9	69	58.3	0	0	---	0.00	30.009 
22:05	68.8	68.8	68.8	69	58.2	0	0	---	0.00	30.009 
22:10	68.8	68.8	68.8	70	58.6	0	0	---	0.00	30.009 
22:15	68.6	68.6	68.6	70	58.4	0	0	---	0.00	30.017 
22:20	68.4	68.4	68.4	71	58.6	0	0	---	0.00	30.017 
22:25	68.3	68.3	68.3	71	58.5	0	0	---	0.00	30.017 
22:30	68.3	68.3	68.3	72	58.9	0	0	---	0.00	30.023 
22:35	68.1	68.1	68.1	72	58.7	0	0	---	0.00	30.023 
22:40	68.1	68.1	68.1	72	58.7	0	0	---	0.00	30.023 
22:45	67.9	67.9	67.9	73	58.9	0	0	---	0.00	30.027 
22:50	67.8	67.8	67.8	73	58.8	0	0	---	0.00	30.027 
22:55	67.8	67.8	67.8	73	58.8	0	0	---	0.00	30.027 
23:00	67.6	67.6	67.6	74	59.0	0	0	---	0.00	30.037 
23:05	67.6	67.6	67.6	74	59.0	0	0	---	0.00	30.037 
23:10	67.4	67.4	67.4	74	58.8	0	0	---	0.00	30.037 
23:15	67.3	67.3	67.3	75	59.1	0	0	---	0.00	30.038 
23:20	67.1	67.1	67.1	75	58.9	0	0	---	0.00	30.038 
23:25	66.9	66.9	66.9	76	59.1	0	0	---	0.00	30.038 
23:30	66.8	66.8	66.8	77	59.3	0	0	---	0.00	30.040 
23:35	66.4	66.4	66.4	77	59.0	0	0	---	0.00	30.040 
23:40	66.1	66.1	66.1	78	59.0	0	0	---	0.00	30.040 
23:45	65.8	65.8	65.8	79	59.1	0	0	---	0.00	30.048 
23:50	65.6	65.6	65.6	80	59.3	0	0	---	0.00	30.048 
23:55	65.5	65.5	65.5	80	59.2	0	0	---	0.00	30.048 

CoCoRaHS
IN-AL-39
A2 Web Hosting
Creative Commons License
GoDaddy
search engine by freefind advanced

loaded 2018-11-20 03:26:32 • last modified 2010-11-18 10:43:29
Privacy PolicyDisclaimer
• wx.awcolley.com is powered by PmWiki v.2002016 •
• all content (unless otherwise noted) © 2018 A W Colley